Flight Track Log - Related Links

Times and Time Zones

All times are in EST time to prevent confusion due to time zone crossing. See the CCA4462 flight status page for this flight to view local times or setup timezone preferences in your user account.

Time Position Orientation Groundspeed Altitude Reporting Facility
EST Latitude Longitude Course Direction KTS MPH feet Rate Location/Type
Sun 09:01:00 PM 26.8161 101.9403 25° Northeast  Level Estimated
Sun 09:02:00 PM 26.9081 101.9875 25° Northeast  Level Estimated
Sun 09:03:00 PM 27.0001 102.0348 25° Northeast  Level Estimated
Sun 09:04:00 PM 27.0921 102.0822 25° Northeast  Level Estimated
Sun 09:05:00 PM 27.1841 102.1297 25° Northeast  Level Estimated
Sun 09:06:00 PM 27.2760 102.1772 25° Northeast  Level Estimated
Sun 09:07:00 PM 27.3680 102.2249 25° Northeast  Level Estimated
Sun 09:08:00 PM 27.4599 102.2726 25° Northeast  Level Estimated
Sun 09:09:00 PM 27.5518 102.3204 25° Northeast  Level Estimated
Sun 09:10:00 PM 27.6437 102.3682 25° Northeast  Level Estimated
Sun 09:11:00 PM 27.7355 102.4162 25° Northeast  Level Estimated
Sun 09:12:00 PM 27.8274 102.4642 25° Northeast  Level Estimated
Sun 09:13:00 PM 27.9192 102.5123 25° Northeast  Level Estimated
Sun 09:14:00 PM 28.0110 102.5605 25° Northeast  Level Estimated
Sun 09:15:00 PM 28.1028 102.6088 25° Northeast  Level Estimated
Sun 09:16:00 PM 28.1946 102.6572 25° Northeast  Level Estimated
Sun 09:17:00 PM 28.2864 102.7056 25° Northeast  Level Estimated
Sun 09:18:00 PM 28.3781 102.7541 25° Northeast  Level Estimated
Sun 09:19:00 PM 28.4699 102.8027 25° Northeast  Level Estimated
Sun 09:20:00 PM 28.5616 102.8514 25° Northeast  Level Estimated
Sun 09:21:00 PM 28.6533 102.9002 25° Northeast  Level Estimated
Sun 09:22:00 PM 28.7449 102.9491 25° Northeast  Level Estimated
Sun 09:23:00 PM 28.8366 102.9980 25° Northeast  Level Estimated
Sun 09:24:00 PM 28.9282 103.0470 25° Northeast  Level Estimated
Sun 09:25:00 PM 29.0199 103.0962 25° Northeast  Level Estimated
Sun 09:26:00 PM 29.1115 103.1454 25° Northeast  Level Estimated
Sun 09:27:00 PM 29.2031 103.1947 25° Northeast  Level Estimated
Sun 09:28:00 PM 29.2946 103.2440 25° Northeast  Level Estimated
Sun 09:29:00 PM 29.3862 103.2935 25° Northeast  Level Estimated
Sun 09:30:00 PM 29.4777 103.3431 25° Northeast  Level Estimated
Sun 09:31:00 PM 29.5693 103.3927 25° Northeast  Level Estimated
Sun 09:32:00 PM 29.6608 103.4425 25° Northeast  Level Estimated
Sun 09:33:00 PM 29.7522 103.4923 25° Northeast  Level Estimated
Sun 09:34:00 PM 29.8437 103.5422 25° Northeast  Level Estimated
Sun 09:35:00 PM 29.9351 103.5922 25° Northeast  Level Estimated
Sun 09:36:00 PM 30.0266 103.6424 25° Northeast  Level Estimated
Sun 09:37:00 PM 30.1180 103.6926 25° Northeast  Level Estimated
Sun 09:38:00 PM 30.2094 103.7429 25° Northeast  Level Estimated
Sun 09:39:00 PM 30.3007 103.7932 25° Northeast  Level Estimated
Sun 09:40:00 PM 30.3921 103.8437 25° Northeast  Level Estimated
Sun 09:41:00 PM 30.4834 103.8943 26° Northeast  Level Estimated
Sun 09:42:00 PM 30.5747 103.9450 26° Northeast  Level Estimated
Sun 09:43:00 PM 30.5785 103.9471 26° Northeast  Level Estimated
Sun 09:44:00 PM 30.5785 103.9471 240° Southwest  Level Estimated
Sun 09:45:00 PM 30.5785 103.9471 240° Southwest  Level Estimated
Sun 09:46:00 PM 30.5785 103.9471 240° Southwest  Level Estimated
Sun 09:47:00 PM 30.5785 103.9471 240° Southwest  Level Estimated
Sun 09:48:00 PM 30.5785 103.9471 240° Southwest  Level Estimated
Sun 09:49:00 PM 30.5785 103.9471 240° Southwest  Level Estimated
Sun 09:50:00 PM 30.5785 103.9471 240° Southwest  Level Estimated
Sun 09:51:00 PM 30.5785 103.9471 240° Southwest  Level Estimated
Sun 09:52:00 PM 30.5785 103.9471 240° Southwest  Level Estimated
Sun 09:53:00 PM 30.5785 103.9471 240° Southwest  Level Estimated
Sun 09:54:00 PM 30.5785 103.9471 240° Southwest  Level Estimated
Sun 09:55:00 PM 30.5785 103.9471 240° Southwest  Level Estimated
Sun 09:56:00 PM 30.5785 103.9471 240° Southwest  Level Estimated
Sun 09:57:00 PM 30.5785 103.9471 240° Southwest  Level Estimated
Sun 09:58:00 PM 30.5785 103.9471 240° Southwest  Level Estimated

Login

Don't have an account? Register now (free) for customized features, flight alerts, and more!